SFC Newsletters

Refer to "Latest Club News" on the home page

Home The Club The Windsock Newsletter

Latest Metar/Taf

[source: ADDS]
METAR
FACT 191300Z 06007KT CAVOK 23/03 Q1018 NOSIG =
TAF
TAF FACT 191000Z 1912/2018 16005KT CAVOK BECMG 1918/1920 VRB03KT BECMG 2000/2002 01007KT FM200900 35010KT 9999 FEW008 FM201200 34012KT 9999 FEW025 TX24/1912Z TN08/2006Z =
SR / SS: 05:18 / 16:18 UTC (FASH 2017-08-19)

Quicklinks

Club Events Calendar
FASH Weather 7-Day Forecast